createdAt,value
2018-11-13T00:00:28.971Z,11.70
2018-11-13T00:03:38.339Z,10.93
2018-11-13T00:06:47.533Z,11.97
2018-11-13T00:09:56.883Z,11.60
2018-11-13T00:13:06.118Z,11.20
2018-11-13T00:16:17.459Z,11.10
2018-11-13T00:19:27.637Z,12.20
2018-11-13T00:22:37.964Z,10.63
2018-11-13T00:25:48.943Z,11.37
2018-11-13T00:28:58.977Z,11.57
2018-11-13T00:32:09.656Z,11.27
2018-11-13T00:35:20.012Z,11.80
2018-11-13T00:38:29.162Z,11.73
2018-11-13T00:41:38.386Z,11.23
2018-11-13T00:44:47.778Z,12.57
2018-11-13T00:47:56.993Z,11.80
2018-11-13T00:51:06.294Z,11.80
2018-11-13T00:54:15.515Z,10.70
2018-11-13T00:57:24.614Z,12.33
2018-11-13T01:00:33.835Z,12.07
2018-11-13T01:03:43.105Z,12.40
2018-11-13T01:06:52.330Z,11.33
2018-11-13T01:10:01.557Z,11.80
2018-11-13T01:13:10.807Z,12.40
2018-11-13T01:16:20.126Z,12.07
2018-11-13T01:19:29.371Z,12.00
2018-11-13T01:22:38.648Z,12.23
2018-11-13T01:25:47.975Z,12.90
2018-11-13T01:28:57.310Z,12.43
2018-11-13T01:32:06.584Z,12.67
2018-11-13T01:35:16.990Z,12.97
2018-11-13T01:38:26.199Z,13.00
2018-11-13T01:41:35.595Z,12.50
2018-11-13T01:44:45.324Z,12.10
2018-11-13T01:47:54.628Z,11.77
2018-11-13T01:51:03.793Z,12.17
2018-11-13T01:54:12.975Z,12.13
2018-11-13T01:57:22.060Z,11.27
2018-11-13T02:00:31.272Z,12.40
2018-11-13T02:03:40.635Z,12.27
2018-11-13T02:06:49.887Z,11.27
2018-11-13T02:09:59.057Z,11.63
2018-11-13T02:13:08.347Z,11.07
2018-11-13T02:16:17.820Z,10.70
2018-11-13T02:19:27.109Z,11.50
2018-11-13T02:22:36.402Z,11.90
2018-11-13T02:25:45.687Z,11.83
2018-11-13T02:28:55.080Z,11.70
2018-11-13T02:32:04.359Z,11.70
2018-11-13T02:35:14.206Z,11.83
2018-11-13T02:38:23.429Z,11.67
2018-11-13T02:41:32.563Z,12.07
2018-11-13T02:44:41.758Z,11.27
2018-11-13T02:47:50.871Z,11.53
2018-11-13T02:51:00.162Z,11.90
2018-11-13T02:54:09.423Z,10.87
2018-11-13T02:57:18.971Z,13.03
2018-11-13T03:00:28.531Z,12.43
2018-11-13T03:03:37.722Z,13.53
2018-11-13T03:06:46.989Z,12.13
2018-11-13T03:09:56.254Z,12.77
2018-11-13T03:13:05.594Z,13.17
2018-11-13T03:16:14.789Z,13.30
2018-11-13T03:19:24.012Z,13.30
2018-11-13T03:22:33.274Z,13.00
2018-11-13T03:25:42.510Z,12.73
2018-11-13T03:28:51.919Z,12.67
2018-11-13T03:32:01.229Z,12.87
2018-11-13T03:35:10.483Z,13.47
2018-11-13T03:38:19.679Z,13.23
2018-11-13T03:41:28.899Z,12.40
2018-11-13T03:44:38.204Z,13.83
2018-11-13T03:47:47.458Z,13.47
2018-11-13T03:50:56.884Z,13.13
2018-11-13T03:54:06.239Z,13.47
2018-11-13T03:57:15.436Z,13.37
2018-11-13T04:00:24.670Z,13.57
2018-11-13T04:03:33.908Z,13.40
2018-11-13T04:06:49.753Z,13.83
2018-11-13T04:09:59.119Z,14.10
2018-11-13T04:13:08.436Z,14.90
2018-11-13T04:16:17.550Z,14.97
2018-11-13T04:19:26.782Z,14.97
2018-11-13T04:22:36.069Z,14.10
2018-11-13T04:25:45.278Z,14.67
2018-11-13T04:28:54.758Z,14.90
2018-11-13T04:32:04.063Z,16.90
2018-11-13T04:35:14.368Z,15.80
2018-11-13T04:38:23.605Z,16.67
2018-11-13T04:41:32.943Z,17.40
2018-11-13T04:44:42.113Z,17.27
2018-11-13T04:47:51.502Z,19.10
2018-11-13T04:51:00.628Z,17.60
2018-11-13T04:54:10.027Z,18.53
2018-11-13T04:57:19.347Z,17.37
2018-11-13T05:00:29.191Z,18.53
2018-11-13T05:03:38.370Z,19.03
2018-11-13T05:06:47.668Z,18.40
2018-11-13T05:09:56.943Z,20.37
2018-11-13T05:13:06.083Z,21.90
2018-11-13T05:16:15.371Z,21.83
2018-11-13T05:19:24.715Z,26.33
2018-11-13T05:22:34.050Z,24.47
2018-11-13T05:25:43.405Z,22.10
2018-11-13T05:28:52.602Z,23.43
2018-11-13T05:32:01.719Z,23.10
2018-11-13T05:35:13.172Z,22.83
2018-11-13T05:38:22.479Z,23.90
2018-11-13T05:41:31.694Z,23.17
2018-11-13T05:44:41.039Z,23.87
2018-11-13T05:47:50.347Z,26.00
2018-11-13T05:50:59.605Z,25.83
2018-11-13T05:54:08.794Z,26.40
2018-11-13T05:57:18.217Z,24.83
2018-11-13T06:00:30.964Z,25.20
2018-11-13T06:03:40.228Z,27.17
2018-11-13T06:06:49.568Z,26.13
2018-11-13T06:09:58.781Z,27.30
2018-11-13T06:13:08.047Z,24.80
2018-11-13T06:16:17.271Z,26.33
2018-11-13T06:19:26.850Z,26.63
2018-11-13T06:22:36.157Z,27.17
2018-11-13T06:25:45.274Z,27.10
2018-11-13T06:28:54.819Z,27.17
2018-11-13T06:32:04.323Z,32.03
2018-11-13T06:35:13.742Z,26.90
2018-11-13T06:38:22.976Z,26.90
2018-11-13T06:41:32.298Z,29.13
2018-11-13T06:44:41.600Z,30.60
2018-11-13T06:47:51.086Z,28.63
2018-11-13T06:51:00.296Z,30.13
2018-11-13T06:54:21.002Z,29.47
2018-11-13T06:57:30.978Z,29.83
2018-11-13T07:00:40.054Z,27.63
2018-11-13T07:03:49.291Z,29.10
2018-11-13T07:06:58.480Z,28.20
2018-11-13T07:10:09.346Z,29.00
2018-11-13T07:13:18.557Z,27.20
2018-11-13T07:16:27.836Z,28.70
2018-11-13T07:19:37.079Z,30.63
2018-11-13T07:22:46.521Z,30.60
2018-11-13T07:25:55.910Z,29.43
2018-11-13T07:29:05.204Z,28.83
2018-11-13T07:32:14.590Z,28.23
2018-11-13T07:35:24.070Z,27.77
2018-11-13T07:38:33.234Z,28.40
2018-11-13T07:41:42.592Z,29.50
2018-11-13T07:44:51.736Z,30.50
2018-11-13T07:48:01.424Z,28.30
2018-11-13T07:51:10.573Z,32.30
2018-11-13T07:54:19.698Z,30.97
2018-11-13T07:57:28.879Z,32.37
2018-11-13T08:00:38.001Z,32.47
2018-11-13T08:03:47.378Z,31.37
2018-11-13T08:06:56.523Z,33.60
2018-11-13T08:10:06.538Z,32.27
2018-11-13T08:13:15.873Z,35.87
2018-11-13T08:16:25.143Z,35.20
2018-11-13T08:19:34.435Z,35.90
2018-11-13T08:22:44.212Z,34.17
2018-11-13T08:25:53.587Z,30.47
2018-11-13T08:29:03.041Z,29.53
2018-11-13T08:32:12.548Z,31.33
2018-11-13T08:35:21.863Z,29.37
2018-11-13T08:38:31.124Z,28.97
2018-11-13T08:41:40.439Z,28.23
2018-11-13T08:44:49.648Z,28.40
2018-11-13T08:47:58.905Z,29.13
2018-11-13T08:51:08.274Z,27.07
2018-11-13T08:54:17.890Z,28.00
2018-11-13T08:57:27.157Z,27.63
2018-11-13T09:00:36.556Z,26.73
2018-11-13T09:03:45.665Z,28.10
2018-11-13T09:06:55.060Z,28.20
2018-11-13T09:10:05.599Z,28.47
2018-11-13T09:13:15.026Z,27.63
2018-11-13T09:16:24.311Z,28.00
2018-11-13T09:19:33.866Z,27.60
2018-11-13T09:22:42.908Z,28.00
2018-11-13T09:25:52.185Z,28.93
2018-11-13T09:29:01.462Z,29.03
2018-11-13T09:32:10.758Z,39.60
2018-11-13T09:35:20.455Z,35.03
2018-11-13T09:38:29.727Z,29.93
2018-11-13T09:41:38.883Z,31.83
2018-11-13T09:44:48.502Z,31.43
2018-11-13T09:47:57.587Z,32.00
2018-11-13T09:51:06.811Z,32.73
2018-11-13T09:54:15.937Z,34.90
2018-11-13T09:57:25.155Z,31.07
2018-11-13T10:00:34.848Z,31.77
2018-11-13T10:03:44.478Z,32.23
2018-11-13T10:06:53.286Z,33.60
2018-11-13T10:10:02.459Z,31.77
2018-11-13T10:13:11.578Z,26.70
2018-11-13T10:16:20.931Z,28.23
2018-11-13T10:19:30.202Z,28.00
2018-11-13T10:22:39.445Z,27.20
2018-11-13T10:25:48.939Z,27.43
2018-11-13T10:28:58.242Z,26.60
2018-11-13T10:32:07.610Z,26.47
2018-11-13T10:35:18.342Z,26.27
2018-11-13T10:38:27.587Z,25.70
2018-11-13T10:41:37.040Z,25.33
2018-11-13T10:44:46.243Z,25.47
2018-11-13T10:47:55.634Z,23.57
2018-11-13T10:51:04.938Z,24.40
2018-11-13T10:54:14.193Z,21.83
2018-11-13T10:57:23.324Z,21.77
2018-11-13T11:00:39.218Z,22.47
2018-11-13T11:04:55.558Z,22.27
2018-11-13T11:08:04.731Z,22.03
2018-11-13T11:11:14.144Z,24.00
2018-11-13T11:14:23.435Z,24.27
2018-11-13T11:17:32.760Z,22.77
2018-11-13T11:20:42.086Z,22.30
2018-11-13T11:23:51.365Z,24.13
2018-11-13T11:27:00.494Z,25.80
2018-11-13T11:30:13.259Z,26.27
2018-11-13T11:33:22.557Z,26.20
2018-11-13T11:36:31.911Z,27.53
2018-11-13T11:39:41.382Z,24.77
2018-11-13T11:42:50.624Z,26.13
2018-11-13T11:45:59.719Z,25.17
2018-11-13T11:49:09.140Z,26.20
2018-11-13T11:52:18.465Z,26.23
2018-11-13T11:55:27.723Z,26.47
2018-11-13T11:58:37.743Z,25.30
2018-11-13T12:01:47.133Z,24.90
2018-11-13T12:04:56.437Z,26.40
2018-11-13T12:08:06.813Z,25.10
2018-11-13T12:11:16.322Z,25.77
2018-11-13T12:14:25.713Z,25.70
2018-11-13T12:17:34.853Z,26.07
2018-11-13T12:20:44.206Z,26.67
2018-11-13T12:23:53.567Z,26.67
2018-11-13T12:27:02.669Z,24.50
2018-11-13T12:30:13.827Z,25.90
2018-11-13T12:33:23.425Z,25.33
2018-11-13T12:36:32.725Z,24.67
2018-11-13T12:39:42.055Z,23.60
2018-11-13T12:42:51.713Z,22.37
2018-11-13T12:46:01.034Z,20.83
2018-11-13T12:49:10.492Z,21.67
2018-11-13T12:52:19.676Z,21.03
2018-11-13T12:55:28.811Z,22.80
2018-11-13T12:58:38.421Z,18.63
2018-11-13T13:01:47.538Z,22.47
2018-11-13T13:04:56.685Z,21.40
2018-11-13T13:08:05.892Z,20.83
2018-11-13T13:11:15.212Z,22.57
2018-11-13T13:14:24.417Z,20.70
2018-11-13T13:17:33.834Z,20.27
2018-11-13T13:20:43.219Z,19.70
2018-11-13T13:23:52.597Z,18.90
2018-11-13T13:27:01.949Z,19.27
2018-11-13T13:30:16.523Z,18.87
2018-11-13T13:33:25.902Z,18.77
2018-11-13T13:36:35.213Z,19.13
2018-11-13T13:39:44.326Z,17.43
2018-11-13T13:42:53.449Z,17.50
2018-11-13T13:46:02.847Z,18.03
2018-11-13T13:49:12.161Z,17.40
2018-11-13T13:52:21.370Z,16.50
2018-11-13T13:55:30.672Z,17.63
2018-11-13T13:58:40.118Z,15.67
2018-11-13T14:01:49.318Z,16.23
2018-11-13T14:04:58.481Z,15.13
2018-11-13T14:08:08.499Z,13.63
2018-11-13T14:11:17.718Z,14.10
2018-11-13T14:14:27.130Z,14.47
2018-11-13T14:17:36.293Z,13.27
2018-11-13T14:20:45.455Z,14.43
2018-11-13T14:23:55.900Z,13.67
2018-11-13T14:27:05.235Z,13.27
2018-11-13T14:30:17.272Z,13.03
2018-11-13T14:33:26.455Z,12.63
2018-11-13T14:36:35.774Z,12.87
2018-11-13T14:39:45.127Z,12.43
2018-11-13T14:42:54.342Z,12.30
2018-11-13T14:46:03.434Z,12.83
2018-11-13T14:49:12.632Z,12.73
2018-11-13T14:52:21.806Z,11.97
2018-11-13T14:55:32.565Z,12.07
2018-11-13T14:58:41.688Z,13.23
2018-11-13T15:01:51.045Z,11.77
2018-11-13T15:05:00.433Z,11.70
2018-11-13T15:08:10.332Z,13.57
2018-11-13T15:11:19.811Z,14.67
2018-11-13T15:14:29.206Z,15.50
2018-11-13T15:17:38.562Z,15.17
2018-11-13T15:20:49.134Z,15.20
2018-11-13T15:23:58.551Z,15.33
2018-11-13T15:27:07.898Z,16.80
2018-11-13T15:30:20.195Z,15.60
2018-11-13T15:33:29.392Z,16.77
2018-11-13T15:36:38.833Z,15.93
2018-11-13T15:39:48.656Z,15.73
2018-11-13T15:42:58.196Z,8.37
2018-11-13T15:46:07.427Z,7.33
2018-11-13T15:49:16.631Z,6.53
2018-11-13T15:52:25.853Z,5.17
2018-11-13T15:55:35.191Z,5.27
2018-11-13T15:58:44.484Z,5.72
2018-11-13T16:01:53.674Z,5.33
2018-11-13T16:05:03.073Z,3.67
2018-11-13T16:08:12.541Z,6.75
2018-11-13T16:11:21.798Z,5.47
2018-11-13T16:14:31.088Z,4.80
2018-11-13T16:17:40.783Z,4.33
2018-11-13T16:20:49.882Z,4.00
2018-11-13T16:23:59.179Z,4.57
2018-11-13T16:27:08.335Z,4.90
2018-11-13T16:30:19.185Z,5.93
2018-11-13T16:33:28.429Z,8.80
2018-11-13T16:36:37.774Z,6.90
2018-11-13T16:39:47.059Z,5.80
2018-11-13T16:42:56.298Z,5.80
2018-11-13T16:46:05.883Z,5.20
2018-11-13T16:49:15.330Z,4.70
2018-11-13T16:52:24.620Z,4.83
2018-11-13T16:55:39.247Z,4.60
2018-11-13T16:58:48.690Z,4.17
2018-11-13T17:01:58.032Z,4.43
2018-11-13T17:05:10.360Z,4.10
2018-11-13T17:08:19.487Z,4.40
2018-11-13T17:11:28.985Z,3.53
2018-11-13T17:14:38.287Z,3.37
2018-11-13T17:17:48.414Z,3.17
2018-11-13T17:20:57.642Z,3.00
2018-11-13T17:24:06.871Z,3.00
2018-11-13T17:27:16.141Z,2.30
2018-11-13T17:30:28.000Z,3.20
2018-11-13T17:33:37.111Z,2.00
2018-11-13T17:36:46.355Z,2.10
2018-11-13T17:39:55.710Z,1.80
2018-11-13T17:43:06.246Z,1.73
2018-11-13T17:46:15.332Z,1.93
2018-11-13T17:49:24.698Z,1.80
2018-11-13T17:52:33.959Z,2.00
2018-11-13T17:55:43.202Z,2.63
2018-11-13T17:58:52.432Z,2.97
2018-11-13T18:02:01.780Z,2.67
2018-11-13T18:05:11.194Z,2.00
2018-11-13T18:08:20.409Z,2.10
2018-11-13T18:11:29.896Z,2.23
2018-11-13T18:14:39.217Z,2.00
2018-11-13T18:17:48.729Z,2.40
2018-11-13T18:20:58.158Z,4.10
2018-11-13T18:24:08.263Z,2.17
2018-11-13T18:27:17.590Z,1.77
2018-11-13T18:30:30.981Z,2.00
2018-11-13T18:33:40.115Z,2.10
2018-11-13T18:36:49.250Z,1.67
2018-11-13T18:39:58.562Z,2.00
2018-11-13T18:43:08.113Z,2.23
2018-11-13T18:46:17.450Z,2.30
2018-11-13T18:49:26.914Z,2.03
2018-11-13T18:52:36.178Z,2.10
2018-11-13T18:55:45.469Z,2.80
2018-11-13T18:58:54.674Z,2.20
2018-11-13T19:02:03.899Z,2.20
2018-11-13T19:05:13.836Z,2.90
2018-11-13T19:08:23.110Z,3.07
2018-11-13T19:11:32.531Z,3.50
2018-11-13T19:14:41.812Z,3.63
2018-11-13T19:17:51.252Z,4.50
2018-11-13T19:21:00.523Z,10.23
2018-11-13T19:24:09.934Z,4.13
2018-11-13T19:27:19.218Z,5.80
2018-11-13T19:30:28.399Z,4.53
2018-11-13T19:33:37.655Z,5.33
2018-11-13T19:36:46.999Z,7.30
2018-11-13T19:39:56.340Z,7.37
2018-11-13T19:43:07.403Z,6.90
2018-11-13T19:46:16.772Z,6.30
2018-11-13T19:49:26.294Z,6.43
2018-11-13T19:52:35.573Z,7.03
2018-11-13T19:55:44.831Z,7.50
2018-11-13T19:58:54.022Z,7.13
2018-11-13T20:02:03.201Z,7.43
2018-11-13T20:05:12.547Z,8.23
2018-11-13T20:08:28.607Z,7.87
2018-11-13T20:11:37.962Z,8.07
2018-11-13T20:14:47.368Z,7.77
2018-11-13T20:17:56.710Z,9.00
2018-11-13T20:21:06.265Z,8.50
2018-11-13T20:24:15.779Z,7.90
2018-11-13T20:27:25.222Z,8.13
2018-11-13T20:30:35.911Z,8.33
2018-11-13T20:33:45.266Z,9.50
2018-11-13T20:36:54.667Z,8.70
2018-11-13T20:40:04.111Z,8.50
2018-11-13T20:43:13.487Z,9.07
2018-11-13T20:46:22.668Z,8.53
2018-11-13T20:49:31.831Z,8.93
2018-11-13T20:52:41.155Z,8.17
2018-11-13T20:55:50.494Z,10.70
2018-11-13T20:58:59.865Z,9.07
2018-11-13T21:02:09.037Z,8.97
2018-11-13T21:05:19.912Z,9.60
2018-11-13T21:08:29.204Z,9.93
2018-11-13T21:11:38.316Z,9.70
2018-11-13T21:14:47.564Z,10.83
2018-11-13T21:17:56.827Z,10.37
2018-11-13T21:21:06.311Z,11.03
2018-11-13T21:24:15.735Z,11.23
2018-11-13T21:27:25.008Z,11.27
2018-11-13T21:30:34.449Z,12.60
2018-11-13T21:33:43.721Z,12.53
2018-11-13T21:36:52.951Z,12.87
2018-11-13T21:40:02.145Z,13.00
2018-11-13T21:43:11.709Z,13.23
2018-11-13T21:46:21.001Z,14.17
2018-11-13T21:49:30.426Z,12.73
2018-11-13T21:52:40.590Z,12.93
2018-11-13T21:55:49.943Z,12.70
2018-11-13T21:58:59.435Z,12.43
2018-11-13T22:02:08.722Z,12.00
2018-11-13T22:05:18.007Z,11.97
2018-11-13T22:08:27.229Z,11.77
2018-11-13T22:11:36.251Z,12.03
2018-11-13T22:14:45.454Z,12.17
2018-11-13T22:17:54.618Z,11.90
2018-11-13T22:21:03.941Z,11.87
2018-11-13T22:24:13.259Z,11.33
2018-11-13T22:27:22.656Z,11.33
2018-11-13T22:30:32.564Z,11.23
2018-11-13T22:33:41.872Z,12.40
2018-11-13T22:36:51.507Z,12.67
2018-11-13T22:40:00.697Z,12.53
2018-11-13T22:43:10.215Z,11.90
2018-11-13T22:46:19.326Z,12.30
2018-11-13T22:49:28.722Z,11.77
2018-11-13T22:52:38.144Z,12.07
2018-11-13T22:55:47.442Z,12.53
2018-11-13T22:58:56.789Z,13.13
2018-11-13T23:02:06.243Z,13.17
2018-11-13T23:05:15.505Z,13.77
2018-11-13T23:08:24.782Z,20.93
2018-11-13T23:11:33.886Z,12.40
2018-11-13T23:14:43.350Z,13.43
2018-11-13T23:17:52.640Z,13.27
2018-11-13T23:21:01.854Z,13.13
2018-11-13T23:24:11.173Z,13.23
2018-11-13T23:27:20.287Z,20.00
2018-11-13T23:30:30.259Z,13.83
2018-11-13T23:33:39.621Z,12.00
2018-11-13T23:36:48.912Z,15.00
2018-11-13T23:39:58.631Z,14.27
2018-11-13T23:43:07.896Z,12.53
2018-11-13T23:46:17.165Z,13.23
2018-11-13T23:49:26.343Z,13.73
2018-11-13T23:52:35.496Z,13.53
2018-11-13T23:55:45.153Z,11.77
2018-11-13T23:58:54.078Z,12.00
